sensor_id;sensor_type;location;lat;lon;timestamp;P1;durP1;ratioP1;P2;durP2;ratioP2
8478;SDS011;4276;49.354;6.804;2023-03-01T00:00:50;8.73;;;7.53;;
8478;SDS011;4276;49.354;6.804;2023-03-01T00:03:17;7.87;;;7.17;;
8478;SDS011;4276;49.354;6.804;2023-03-01T00:05:45;8.30;;;7.50;;
8478;SDS011;4276;49.354;6.804;2023-03-01T00:08:12;8.13;;;7.17;;
8478;SDS011;4276;49.354;6.804;2023-03-01T00:10:39;8.33;;;7.53;;
8478;SDS011;4276;49.354;6.804;2023-03-01T00:13:05;7.77;;;6.87;;
8478;SDS011;4276;49.354;6.804;2023-03-01T00:15:32;8.07;;;7.27;;
8478;SDS011;4276;49.354;6.804;2023-03-01T00:18:00;8.20;;;7.43;;
8478;SDS011;4276;49.354;6.804;2023-03-01T00:20:29;8.70;;;7.63;;
8478;SDS011;4276;49.354;6.804;2023-03-01T00:22:56;7.93;;;7.23;;
8478;SDS011;4276;49.354;6.804;2023-03-01T00:25:22;8.30;;;7.50;;
8478;SDS011;4276;49.354;6.804;2023-03-01T00:27:48;7.70;;;7.10;;
8478;SDS011;4276;49.354;6.804;2023-03-01T00:30:15;8.30;;;7.50;;
8478;SDS011;4276;49.354;6.804;2023-03-01T00:32:42;8.70;;;7.73;;
8478;SDS011;4276;49.354;6.804;2023-03-01T00:35:08;8.17;;;7.37;;
8478;SDS011;4276;49.354;6.804;2023-03-01T00:37:35;8.07;;;7.33;;
8478;SDS011;4276;49.354;6.804;2023-03-01T00:40:02;9.87;;;8.10;;
8478;SDS011;4276;49.354;6.804;2023-03-01T00:42:32;9.13;;;8.27;;
8478;SDS011;4276;49.354;6.804;2023-03-01T00:44:58;7.77;;;7.17;;
8478;SDS011;4276;49.354;6.804;2023-03-01T00:47:25;8.63;;;7.83;;
8478;SDS011;4276;49.354;6.804;2023-03-01T00:49:51;9.03;;;8.20;;
8478;SDS011;4276;49.354;6.804;2023-03-01T00:52:17;9.37;;;8.53;;
8478;SDS011;4276;49.354;6.804;2023-03-01T00:54:44;10.13;;;8.73;;
8478;SDS011;4276;49.354;6.804;2023-03-01T00:57:10;9.90;;;8.90;;
8478;SDS011;4276;49.354;6.804;2023-03-01T00:59:37;8.97;;;8.17;;
8478;SDS011;4276;49.354;6.804;2023-03-01T01:02:03;9.43;;;8.53;;
8478;SDS011;4276;49.354;6.804;2023-03-01T01:04:30;9.00;;;8.10;;
8478;SDS011;4276;49.354;6.804;2023-03-01T01:06:56;9.00;;;7.67;;
8478;SDS011;4276;49.354;6.804;2023-03-01T01:09:23;9.40;;;7.63;;
8478;SDS011;4276;49.354;6.804;2023-03-01T01:11:50;8.63;;;7.90;;
8478;SDS011;4276;49.354;6.804;2023-03-01T01:14:17;8.27;;;7.47;;
8478;SDS011;4276;49.354;6.804;2023-03-01T01:16:44;8.43;;;7.63;;
8478;SDS011;4276;49.354;6.804;2023-03-01T01:19:11;8.87;;;8.00;;
8478;SDS011;4276;49.354;6.804;2023-03-01T01:21:38;8.90;;;7.70;;
8478;SDS011;4276;49.354;6.804;2023-03-01T01:24:04;8.17;;;7.37;;
8478;SDS011;4276;49.354;6.804;2023-03-01T01:26:32;8.20;;;7.40;;
8478;SDS011;4276;49.354;6.804;2023-03-01T01:29:00;7.93;;;7.17;;
8478;SDS011;4276;49.354;6.804;2023-03-01T01:31:28;9.60;;;8.10;;
8478;SDS011;4276;49.354;6.804;2023-03-01T01:33:56;9.50;;;8.50;;
8478;SDS011;4276;49.354;6.804;2023-03-01T01:36:23;8.43;;;7.63;;
8478;SDS011;4276;49.354;6.804;2023-03-01T01:38:50;8.67;;;7.80;;
8478;SDS011;4276;49.354;6.804;2023-03-01T01:41:17;8.70;;;7.80;;
8478;SDS011;4276;49.354;6.804;2023-03-01T01:43:45;9.20;;;8.30;;
8478;SDS011;4276;49.354;6.804;2023-03-01T01:46:16;8.47;;;7.67;;
8478;SDS011;4276;49.354;6.804;2023-03-01T01:48:57;9.10;;;8.30;;
8478;SDS011;4276;49.354;6.804;2023-03-01T01:51:30;9.70;;;8.70;;
8478;SDS011;4276;49.354;6.804;2023-03-01T01:54:26;9.43;;;8.47;;
8478;SDS011;4276;49.354;6.804;2023-03-01T01:56:58;8.87;;;8.17;;
8478;SDS011;4276;49.354;6.804;2023-03-01T01:59:27;9.27;;;8.33;;
8478;SDS011;4276;49.354;6.804;2023-03-01T02:01:54;9.47;;;8.60;;
8478;SDS011;4276;49.354;6.804;2023-03-01T02:04:21;9.53;;;8.60;;
8478;SDS011;4276;49.354;6.804;2023-03-01T02:06:49;9.27;;;8.40;;
8478;SDS011;4276;49.354;6.804;2023-03-01T02:09:20;8.90;;;8.10;;
8478;SDS011;4276;49.354;6.804;2023-03-01T02:11:48;10.07;;;8.43;;
8478;SDS011;4276;49.354;6.804;2023-03-01T02:14:15;9.93;;;8.93;;
8478;SDS011;4276;49.354;6.804;2023-03-01T02:16:42;9.80;;;8.83;;
8478;SDS011;4276;49.354;6.804;2023-03-01T02:19:10;9.63;;;8.73;;
8478;SDS011;4276;49.354;6.804;2023-03-01T02:22:03;9.90;;;9.00;;
8478;SDS011;4276;49.354;6.804;2023-03-01T02:27:04;10.27;;;9.07;;
8478;SDS011;4276;49.354;6.804;2023-03-01T02:29:31;10.30;;;9.30;;
8478;SDS011;4276;49.354;6.804;2023-03-01T02:31:58;9.20;;;8.37;;
8478;SDS011;4276;49.354;6.804;2023-03-01T02:34:26;8.80;;;7.97;;
8478;SDS011;4276;49.354;6.804;2023-03-01T02:39:48;9.87;;;8.87;;
8478;SDS011;4276;49.354;6.804;2023-03-01T02:42:28;9.63;;;8.73;;
8478;SDS011;4276;49.354;6.804;2023-03-01T02:44:58;9.90;;;8.97;;
8478;SDS011;4276;49.354;6.804;2023-03-01T02:47:24;9.90;;;9.00;;
8478;SDS011;4276;49.354;6.804;2023-03-01T02:49:51;9.90;;;8.90;;
8478;SDS011;4276;49.354;6.804;2023-03-01T02:55:12;10.17;;;9.17;;
8478;SDS011;4276;49.354;6.804;2023-03-01T02:57:41;10.40;;;9.40;;
8478;SDS011;4276;49.354;6.804;2023-03-01T03:00:11;10.50;;;9.50;;
8478;SDS011;4276;49.354;6.804;2023-03-01T03:02:49;10.70;;;9.50;;
8478;SDS011;4276;49.354;6.804;2023-03-01T03:05:19;9.97;;;9.03;;
8478;SDS011;4276;49.354;6.804;2023-03-01T03:07:47;11.03;;;9.90;;
8478;SDS011;4276;49.354;6.804;2023-03-01T03:10:24;10.03;;;9.03;;
8478;SDS011;4276;49.354;6.804;2023-03-01T03:12:57;10.80;;;9.53;;
8478;SDS011;4276;49.354;6.804;2023-03-01T03:15:25;10.60;;;9.20;;
8478;SDS011;4276;49.354;6.804;2023-03-01T03:17:53;10.93;;;9.80;;
8478;SDS011;4276;49.354;6.804;2023-03-01T03:20:20;12.03;;;9.37;;
8478;SDS011;4276;49.354;6.804;2023-03-01T03:22:49;10.57;;;9.47;;
8478;SDS011;4276;49.354;6.804;2023-03-01T03:25:18;9.93;;;9.00;;
8478;SDS011;4276;49.354;6.804;2023-03-01T03:27:45;9.90;;;8.93;;
8478;SDS011;4276;49.354;6.804;2023-03-01T03:30:14;10.93;;;9.47;;
8478;SDS011;4276;49.354;6.804;2023-03-01T03:32:44;9.90;;;9.00;;
8478;SDS011;4276;49.354;6.804;2023-03-01T03:35:28;9.87;;;8.93;;
8478;SDS011;4276;49.354;6.804;2023-03-01T03:37:59;11.80;;;9.50;;
8478;SDS011;4276;49.354;6.804;2023-03-01T03:40:35;11.17;;;9.53;;
8478;SDS011;4276;49.354;6.804;2023-03-01T03:43:04;10.23;;;9.23;;
8478;SDS011;4276;49.354;6.804;2023-03-01T03:45:31;9.73;;;8.83;;
8478;SDS011;4276;49.354;6.804;2023-03-01T03:47:59;10.30;;;8.87;;
8478;SDS011;4276;49.354;6.804;2023-03-01T03:50:26;9.97;;;9.07;;
8478;SDS011;4276;49.354;6.804;2023-03-01T03:52:53;11.40;;;10.30;;
8478;SDS011;4276;49.354;6.804;2023-03-01T03:55:19;10.47;;;9.50;;
8478;SDS011;4276;49.354;6.804;2023-03-01T03:57:46;10.50;;;9.43;;
8478;SDS011;4276;49.354;6.804;2023-03-01T04:00:19;10.97;;;9.50;;
8478;SDS011;4276;49.354;6.804;2023-03-01T04:02:47;10.30;;;9.23;;
8478;SDS011;4276;49.354;6.804;2023-03-01T04:05:14;9.97;;;9.03;;
8478;SDS011;4276;49.354;6.804;2023-03-01T04:07:42;10.83;;;9.73;;
8478;SDS011;4276;49.354;6.804;2023-03-01T04:10:10;11.13;;;9.87;;
8478;SDS011;4276;49.354;6.804;2023-03-01T04:12:39;10.27;;;8.90;;
8478;SDS011;4276;49.354;6.804;2023-03-01T04:15:06;11.13;;;10.03;;
8478;SDS011;4276;49.354;6.804;2023-03-01T04:17:42;10.80;;;9.70;;
8478;SDS011;4276;49.354;6.804;2023-03-01T04:20:11;10.37;;;9.33;;
8478;SDS011;4276;49.354;6.804;2023-03-01T04:22:39;10.27;;;9.27;;
8478;SDS011;4276;49.354;6.804;2023-03-01T04:25:06;10.63;;;9.40;;
8478;SDS011;4276;49.354;6.804;2023-03-01T04:27:33;11.57;;;10.37;;
8478;SDS011;4276;49.354;6.804;2023-03-01T04:30:00;10.70;;;9.60;;
8478;SDS011;4276;49.354;6.804;2023-03-01T04:32:27;10.10;;;9.10;;
8478;SDS011;4276;49.354;6.804;2023-03-01T04:34:54;11.87;;;9.83;;
8478;SDS011;4276;49.354;6.804;2023-03-01T04:37:20;10.00;;;9.03;;
8478;SDS011;4276;49.354;6.804;2023-03-01T04:39:47;9.67;;;8.73;;
8478;SDS011;4276;49.354;6.804;2023-03-01T04:42:14;11.50;;;9.97;;
8478;SDS011;4276;49.354;6.804;2023-03-01T04:44:41;9.90;;;8.90;;
8478;SDS011;4276;49.354;6.804;2023-03-01T04:47:07;9.77;;;8.87;;
8478;SDS011;4276;49.354;6.804;2023-03-01T04:49:34;11.20;;;10.10;;
8478;SDS011;4276;49.354;6.804;2023-03-01T04:52:01;11.93;;;10.67;;
8478;SDS011;4276;49.354;6.804;2023-03-01T04:54:30;11.53;;;9.67;;
8478;SDS011;4276;49.354;6.804;2023-03-01T04:56:58;11.93;;;10.73;;
8478;SDS011;4276;49.354;6.804;2023-03-01T04:59:25;11.20;;;9.93;;
8478;SDS011;4276;49.354;6.804;2023-03-01T05:01:51;11.67;;;10.47;;
8478;SDS011;4276;49.354;6.804;2023-03-01T05:04:22;12.85;;;11.18;;
8478;SDS011;4276;49.354;6.804;2023-03-01T05:06:49;12.03;;;10.83;;
8478;SDS011;4276;49.354;6.804;2023-03-01T05:09:16;12.73;;;11.50;;
8478;SDS011;4276;49.354;6.804;2023-03-01T05:11:42;11.97;;;10.77;;
8478;SDS011;4276;49.354;6.804;2023-03-01T05:14:09;11.87;;;10.67;;
8478;SDS011;4276;49.354;6.804;2023-03-01T05:16:36;12.10;;;10.80;;
8478;SDS011;4276;49.354;6.804;2023-03-01T05:19:03;12.60;;;11.40;;
8478;SDS011;4276;49.354;6.804;2023-03-01T05:21:42;12.40;;;11.20;;
8478;SDS011;4276;49.354;6.804;2023-03-01T05:24:28;12.53;;;10.60;;
8478;SDS011;4276;49.354;6.804;2023-03-01T05:26:55;12.77;;;10.57;;
8478;SDS011;4276;49.354;6.804;2023-03-01T05:29:22;11.90;;;10.63;;
8478;SDS011;4276;49.354;6.804;2023-03-01T05:31:53;12.87;;;11.37;;
8478;SDS011;4276;49.354;6.804;2023-03-01T05:34:28;13.27;;;11.10;;
8478;SDS011;4276;49.354;6.804;2023-03-01T05:36:59;12.30;;;11.13;;
8478;SDS011;4276;49.354;6.804;2023-03-01T05:39:26;13.27;;;11.90;;
8478;SDS011;4276;49.354;6.804;2023-03-01T05:41:58;13.03;;;11.23;;
8478;SDS011;4276;49.354;6.804;2023-03-01T05:44:25;13.03;;;11.73;;
8478;SDS011;4276;49.354;6.804;2023-03-01T05:46:54;13.13;;;11.73;;
8478;SDS011;4276;49.354;6.804;2023-03-01T05:49:21;15.40;;;12.73;;
8478;SDS011;4276;49.354;6.804;2023-03-01T05:51:51;13.43;;;11.27;;
8478;SDS011;4276;49.354;6.804;2023-03-01T05:54:19;13.20;;;11.53;;
8478;SDS011;4276;49.354;6.804;2023-03-01T05:56:46;13.40;;;12.00;;
8478;SDS011;4276;49.354;6.804;2023-03-01T05:59:13;15.17;;;12.93;;
8478;SDS011;4276;49.354;6.804;2023-03-01T06:01:41;14.50;;;13.00;;
8478;SDS011;4276;49.354;6.804;2023-03-01T06:04:07;14.60;;;12.67;;
8478;SDS011;4276;49.354;6.804;2023-03-01T06:06:35;14.53;;;12.63;;
8478;SDS011;4276;49.354;6.804;2023-03-01T06:09:06;14.33;;;12.77;;
8478;SDS011;4276;49.354;6.804;2023-03-01T06:11:34;14.40;;;12.93;;
8478;SDS011;4276;49.354;6.804;2023-03-01T06:14:01;14.20;;;11.70;;
8478;SDS011;4276;49.354;6.804;2023-03-01T06:16:27;15.87;;;12.83;;
8478;SDS011;4276;49.354;6.804;2023-03-01T06:18:54;14.73;;;13.17;;
8478;SDS011;4276;49.354;6.804;2023-03-01T06:21:21;17.30;;;12.87;;
8478;SDS011;4276;49.354;6.804;2023-03-01T06:23:47;13.33;;;11.93;;
8478;SDS011;4276;49.354;6.804;2023-03-01T06:26:14;15.97;;;13.63;;
8478;SDS011;4276;49.354;6.804;2023-03-01T06:28:40;15.57;;;13.80;;
8478;SDS011;4276;49.354;6.804;2023-03-01T06:31:07;15.63;;;13.17;;
8478;SDS011;4276;49.354;6.804;2023-03-01T06:33:35;16.77;;;13.73;;
8478;SDS011;4276;49.354;6.804;2023-03-01T06:36:02;14.10;;;12.60;;
8478;SDS011;4276;49.354;6.804;2023-03-01T06:38:29;16.10;;;13.87;;
8478;SDS011;4276;49.354;6.804;2023-03-01T06:40:55;15.47;;;13.47;;
8478;SDS011;4276;49.354;6.804;2023-03-01T06:43:23;14.70;;;13.07;;
8478;SDS011;4276;49.354;6.804;2023-03-01T06:45:49;15.33;;;13.70;;
8478;SDS011;4276;49.354;6.804;2023-03-01T06:48:16;14.53;;;12.77;;
8478;SDS011;4276;49.354;6.804;2023-03-01T06:50:43;14.67;;;13.03;;
8478;SDS011;4276;49.354;6.804;2023-03-01T06:53:10;14.93;;;13.13;;
8478;SDS011;4276;49.354;6.804;2023-03-01T06:55:36;16.00;;;14.27;;
8478;SDS011;4276;49.354;6.804;2023-03-01T06:58:03;16.47;;;14.13;;
8478;SDS011;4276;49.354;6.804;2023-03-01T07:00:29;17.30;;;14.73;;
8478;SDS011;4276;49.354;6.804;2023-03-01T07:03:02;15.00;;;13.27;;
8478;SDS011;4276;49.354;6.804;2023-03-01T07:05:29;15.53;;;13.93;;
8478;SDS011;4276;49.354;6.804;2023-03-01T07:07:57;15.30;;;13.70;;
8478;SDS011;4276;49.354;6.804;2023-03-01T07:10:23;17.43;;;14.50;;
8478;SDS011;4276;49.354;6.804;2023-03-01T07:12:50;17.27;;;14.87;;
8478;SDS011;4276;49.354;6.804;2023-03-01T07:15:16;15.47;;;13.57;;
8478;SDS011;4276;49.354;6.804;2023-03-01T07:17:46;16.37;;;13.77;;
8478;SDS011;4276;49.354;6.804;2023-03-01T07:20:16;16.50;;;14.70;;
8478;SDS011;4276;49.354;6.804;2023-03-01T07:22:43;15.53;;;13.73;;
8478;SDS011;4276;49.354;6.804;2023-03-01T07:25:10;16.43;;;14.83;;
8478;SDS011;4276;49.354;6.804;2023-03-01T07:27:37;15.30;;;13.70;;
8478;SDS011;4276;49.354;6.804;2023-03-01T07:30:03;16.67;;;14.23;;
8478;SDS011;4276;49.354;6.804;2023-03-01T07:32:30;15.13;;;13.53;;
8478;SDS011;4276;49.354;6.804;2023-03-01T07:34:57;16.23;;;13.63;;
8478;SDS011;4276;49.354;6.804;2023-03-01T07:37:23;15.67;;;14.03;;
8478;SDS011;4276;49.354;6.804;2023-03-01T07:39:50;15.93;;;14.33;;
8478;SDS011;4276;49.354;6.804;2023-03-01T07:42:16;16.10;;;14.50;;
8478;SDS011;4276;49.354;6.804;2023-03-01T07:44:43;15.07;;;13.47;;
8478;SDS011;4276;49.354;6.804;2023-03-01T07:47:09;17.37;;;14.53;;
8478;SDS011;4276;49.354;6.804;2023-03-01T07:49:36;15.60;;;13.97;;
8478;SDS011;4276;49.354;6.804;2023-03-01T07:52:02;15.87;;;14.27;;
8478;SDS011;4276;49.354;6.804;2023-03-01T07:54:29;15.73;;;14.13;;
8478;SDS011;4276;49.354;6.804;2023-03-01T07:56:56;16.37;;;14.67;;
8478;SDS011;4276;49.354;6.804;2023-03-01T07:59:23;15.30;;;13.67;;
8478;SDS011;4276;49.354;6.804;2023-03-01T08:01:55;17.30;;;15.50;;
8478;SDS011;4276;49.354;6.804;2023-03-01T08:04:22;15.23;;;13.67;;
8478;SDS011;4276;49.354;6.804;2023-03-01T08:06:51;15.37;;;13.80;;
8478;SDS011;4276;49.354;6.804;2023-03-01T08:09:17;15.30;;;13.80;;
8478;SDS011;4276;49.354;6.804;2023-03-01T08:11:44;15.67;;;14.03;;
8478;SDS011;4276;49.354;6.804;2023-03-01T08:14:10;15.90;;;13.53;;
8478;SDS011;4276;49.354;6.804;2023-03-01T08:16:37;16.20;;;14.60;;
8478;SDS011;4276;49.354;6.804;2023-03-01T08:19:07;15.47;;;13.87;;
8478;SDS011;4276;49.354;6.804;2023-03-01T08:21:35;16.23;;;14.40;;
8478;SDS011;4276;49.354;6.804;2023-03-01T08:24:03;18.05;;;14.95;;
8478;SDS011;4276;49.354;6.804;2023-03-01T08:26:34;16.88;;;15.18;;
8478;SDS011;4276;49.354;6.804;2023-03-01T08:29:01;16.50;;;14.30;;
8478;SDS011;4276;49.354;6.804;2023-03-01T08:31:32;15.73;;;14.13;;
8478;SDS011;4276;49.354;6.804;2023-03-01T08:34:03;16.23;;;14.53;;
8478;SDS011;4276;49.354;6.804;2023-03-01T08:36:41;16.70;;;14.90;;
8478;SDS011;4276;49.354;6.804;2023-03-01T08:39:09;15.57;;;13.97;;
8478;SDS011;4276;49.354;6.804;2023-03-01T08:41:37;15.60;;;14.00;;
8478;SDS011;4276;49.354;6.804;2023-03-01T08:44:04;15.45;;;13.90;;
8478;SDS011;4276;49.354;6.804;2023-03-01T08:46:32;16.85;;;15.10;;
8478;SDS011;4276;49.354;6.804;2023-03-01T08:49:05;16.15;;;14.52;;
8478;SDS011;4276;49.354;6.804;2023-03-01T08:51:33;16.90;;;15.13;;
8478;SDS011;4276;49.354;6.804;2023-03-01T08:54:06;15.52;;;13.93;;
8478;SDS011;4276;49.354;6.804;2023-03-01T08:56:35;15.98;;;14.48;;
8478;SDS011;4276;49.354;6.804;2023-03-01T08:59:02;15.73;;;14.00;;
8478;SDS011;4276;49.354;6.804;2023-03-01T09:01:29;15.95;;;14.27;;
8478;SDS011;4276;49.354;6.804;2023-03-01T09:03:56;15.75;;;14.13;;
8478;SDS011;4276;49.354;6.804;2023-03-01T09:06:22;16.23;;;14.57;;
8478;SDS011;4276;49.354;6.804;2023-03-01T09:08:49;16.88;;;15.13;;
8478;SDS011;4276;49.354;6.804;2023-03-01T09:11:18;17.63;;;15.07;;
8478;SDS011;4276;49.354;6.804;2023-03-01T09:13:45;16.45;;;14.85;;
8478;SDS011;4276;49.354;6.804;2023-03-01T09:16:14;16.67;;;15.07;;
8478;SDS011;4276;49.354;6.804;2023-03-01T09:18:41;16.75;;;14.27;;
8478;SDS011;4276;49.354;6.804;2023-03-01T09:21:12;15.60;;;14.07;;
8478;SDS011;4276;49.354;6.804;2023-03-01T09:23:41;15.57;;;13.82;;
8478;SDS011;4276;49.354;6.804;2023-03-01T09:26:12;16.10;;;14.48;;
8478;SDS011;4276;49.354;6.804;2023-03-01T09:28:52;16.15;;;14.45;;
8478;SDS011;4276;49.354;6.804;2023-03-01T09:31:20;16.70;;;14.88;;
8478;SDS011;4276;49.354;6.804;2023-03-01T09:33:47;16.63;;;14.85;;
8478;SDS011;4276;49.354;6.804;2023-03-01T09:36:17;16.10;;;14.48;;
8478;SDS011;4276;49.354;6.804;2023-03-01T09:38:46;15.07;;;13.55;;
8478;SDS011;4276;49.354;6.804;2023-03-01T09:43:53;15.90;;;14.32;;
8478;SDS011;4276;49.354;6.804;2023-03-01T09:46:32;16.67;;;15.00;;
8478;SDS011;4276;49.354;6.804;2023-03-01T09:49:05;15.77;;;14.15;;
8478;SDS011;4276;49.354;6.804;2023-03-01T09:51:37;16.58;;;14.63;;
8478;SDS011;4276;49.354;6.804;2023-03-01T09:54:04;16.58;;;14.98;;
8478;SDS011;4276;49.354;6.804;2023-03-01T10:07:17;16.23;;;14.63;;
8478;SDS011;4276;49.354;6.804;2023-03-01T10:09:54;16.02;;;14.48;;
8478;SDS011;4276;49.354;6.804;2023-03-01T10:12:22;16.35;;;14.65;;
8478;SDS011;4276;49.354;6.804;2023-03-01T10:20:26;15.48;;;13.88;;
8478;SDS011;4276;49.354;6.804;2023-03-01T10:23:08;15.32;;;13.82;;
8478;SDS011;4276;49.354;6.804;2023-03-01T10:30:44;15.73;;;14.23;;
8478;SDS011;4276;49.354;6.804;2023-03-01T10:33:19;15.63;;;13.60;;
8478;SDS011;4276;49.354;6.804;2023-03-01T10:35:48;15.75;;;14.05;;
8478;SDS011;4276;49.354;6.804;2023-03-01T10:38:16;14.55;;;13.00;;
8478;SDS011;4276;49.354;6.804;2023-03-01T10:40:50;15.15;;;13.65;;
8478;SDS011;4276;49.354;6.804;2023-03-01T10:43:17;16.20;;;14.50;;
8478;SDS011;4276;49.354;6.804;2023-03-01T10:45:44;15.55;;;14.05;;
8478;SDS011;4276;49.354;6.804;2023-03-01T10:48:13;15.45;;;13.85;;
8478;SDS011;4276;49.354;6.804;2023-03-01T10:50:44;15.40;;;13.88;;
8478;SDS011;4276;49.354;6.804;2023-03-01T10:56:00;14.55;;;13.02;;
8478;SDS011;4276;49.354;6.804;2023-03-01T10:58:27;14.50;;;13.13;;
8478;SDS011;4276;49.354;6.804;2023-03-01T11:00:59;14.65;;;13.15;;
8478;SDS011;4276;49.354;6.804;2023-03-01T11:03:37;16.02;;;14.32;;
8478;SDS011;4276;49.354;6.804;2023-03-01T11:08:41;15.23;;;13.82;;
8478;SDS011;4276;49.354;6.804;2023-03-01T11:14:03;15.45;;;13.82;;
8478;SDS011;4276;49.354;6.804;2023-03-01T11:17:01;15.10;;;13.60;;
8478;SDS011;4276;49.354;6.804;2023-03-01T11:19:29;16.95;;;15.18;;
8478;SDS011;4276;49.354;6.804;2023-03-01T11:27:14;15.32;;;13.73;;
8478;SDS011;4276;49.354;6.804;2023-03-01T11:29:44;14.75;;;13.32;;
8478;SDS011;4276;49.354;6.804;2023-03-01T11:32:14;13.98;;;12.60;;
8478;SDS011;4276;49.354;6.804;2023-03-01T11:34:55;15.07;;;13.57;;
8478;SDS011;4276;49.354;6.804;2023-03-01T11:37:44;15.13;;;13.70;;
8478;SDS011;4276;49.354;6.804;2023-03-01T11:45:43;16.55;;;13.63;;
8478;SDS011;4276;49.354;6.804;2023-03-01T11:48:24;15.00;;;13.52;;
8478;SDS011;4276;49.354;6.804;2023-03-01T11:51:20;15.40;;;13.80;;
8478;SDS011;4276;49.354;6.804;2023-03-01T11:53:56;15.18;;;13.77;;
8478;SDS011;4276;49.354;6.804;2023-03-01T11:56:29;14.48;;;13.07;;
8478;SDS011;4276;49.354;6.804;2023-03-01T12:04:54;15.95;;;14.45;;
8478;SDS011;4276;49.354;6.804;2023-03-01T12:15:33;14.52;;;13.13;;
8478;SDS011;4276;49.354;6.804;2023-03-01T12:26:27;14.68;;;13.25;;
8478;SDS011;4276;49.354;6.804;2023-03-01T12:29:16;15.63;;;13.98;;
8478;SDS011;4276;49.354;6.804;2023-03-01T12:34:41;15.45;;;13.50;;
8478;SDS011;4276;49.354;6.804;2023-03-01T12:43:00;14.57;;;13.10;;
8478;SDS011;4276;49.354;6.804;2023-03-01T12:45:34;15.43;;;13.95;;
8478;SDS011;4276;49.354;6.804;2023-03-01T12:48:24;15.00;;;13.50;;
8478;SDS011;4276;49.354;6.804;2023-03-01T12:50:59;14.10;;;12.75;;
8478;SDS011;4276;49.354;6.804;2023-03-01T12:53:29;15.13;;;13.65;;
8478;SDS011;4276;49.354;6.804;2023-03-01T12:56:00;14.50;;;13.20;;
8478;SDS011;4276;49.354;6.804;2023-03-01T12:58:33;14.63;;;13.15;;
8478;SDS011;4276;49.354;6.804;2023-03-01T13:06:44;15.80;;;14.23;;
8478;SDS011;4276;49.354;6.804;2023-03-01T13:20:52;13.82;;;12.52;;
8478;SDS011;4276;49.354;6.804;2023-03-01T13:30:58;14.48;;;13.07;;
8478;SDS011;4276;49.354;6.804;2023-03-01T13:35:57;13.68;;;12.48;;
8478;SDS011;4276;49.354;6.804;2023-03-01T13:41:17;14.65;;;13.27;;
8478;SDS011;4276;49.354;6.804;2023-03-01T13:44:24;14.45;;;13.05;;
8478;SDS011;4276;49.354;6.804;2023-03-01T13:49:40;14.13;;;12.73;;
8478;SDS011;4276;49.354;6.804;2023-03-01T13:54:47;12.90;;;11.70;;
8478;SDS011;4276;49.354;6.804;2023-03-01T13:57:18;14.15;;;12.85;;
8478;SDS011;4276;49.354;6.804;2023-03-01T13:59:48;14.30;;;12.90;;
8478;SDS011;4276;49.354;6.804;2023-03-01T14:02:14;13.80;;;12.50;;
8478;SDS011;4276;49.354;6.804;2023-03-01T14:04:41;13.02;;;11.75;;
8478;SDS011;4276;49.354;6.804;2023-03-01T14:07:20;13.52;;;12.32;;
8478;SDS011;4276;49.354;6.804;2023-03-01T14:09:54;14.15;;;12.75;;
8478;SDS011;4276;49.354;6.804;2023-03-01T14:15:02;12.82;;;11.65;;
8478;SDS011;4276;49.354;6.804;2023-03-01T14:20:17;13.07;;;11.82;;
8478;SDS011;4276;49.354;6.804;2023-03-01T14:22:45;12.27;;;11.18;;
8478;SDS011;4276;49.354;6.804;2023-03-01T14:27:50;13.55;;;12.15;;
8478;SDS011;4276;49.354;6.804;2023-03-01T14:30:42;12.30;;;11.05;;
8478;SDS011;4276;49.354;6.804;2023-03-01T14:33:19;13.70;;;12.40;;
8478;SDS011;4276;49.354;6.804;2023-03-01T14:35:52;12.82;;;11.60;;
8478;SDS011;4276;49.354;6.804;2023-03-01T14:38:34;12.05;;;10.95;;
8478;SDS011;4276;49.354;6.804;2023-03-01T14:43:35;11.20;;;10.07;;
8478;SDS011;4276;49.354;6.804;2023-03-01T14:46:04;12.07;;;10.98;;
8478;SDS011;4276;49.354;6.804;2023-03-01T14:48:30;13.10;;;11.80;;
8478;SDS011;4276;49.354;6.804;2023-03-01T14:50:57;12.65;;;11.43;;
8478;SDS011;4276;49.354;6.804;2023-03-01T14:53:24;12.93;;;11.70;;
8478;SDS011;4276;49.354;6.804;2023-03-01T14:55:54;12.35;;;11.18;;
8478;SDS011;4276;49.354;6.804;2023-03-01T14:58:23;12.10;;;10.93;;
8478;SDS011;4276;49.354;6.804;2023-03-01T15:00:53;12.13;;;11.00;;
8478;SDS011;4276;49.354;6.804;2023-03-01T15:05:56;11.90;;;10.82;;
8478;SDS011;4276;49.354;6.804;2023-03-01T15:08:23;11.63;;;10.63;;
8478;SDS011;4276;49.354;6.804;2023-03-01T15:10:56;11.95;;;10.85;;
8478;SDS011;4276;49.354;6.804;2023-03-01T15:13:25;11.25;;;10.23;;
8478;SDS011;4276;49.354;6.804;2023-03-01T15:15:53;11.55;;;10.50;;
8478;SDS011;4276;49.354;6.804;2023-03-01T15:18:33;11.95;;;10.77;;
8478;SDS011;4276;49.354;6.804;2023-03-01T15:21:15;10.85;;;9.77;;
8478;SDS011;4276;49.354;6.804;2023-03-01T15:23:47;10.07;;;9.15;;
8478;SDS011;4276;49.354;6.804;2023-03-01T15:28:51;11.23;;;10.13;;
8478;SDS011;4276;49.354;6.804;2023-03-01T15:31:23;10.00;;;9.02;;
8478;SDS011;4276;49.354;6.804;2023-03-01T15:33:51;9.98;;;8.95;;
8478;SDS011;4276;49.354;6.804;2023-03-01T15:36:38;10.80;;;9.80;;
8478;SDS011;4276;49.354;6.804;2023-03-01T15:42:04;11.40;;;10.30;;
8478;SDS011;4276;49.354;6.804;2023-03-01T15:44:33;11.13;;;10.02;;
8478;SDS011;4276;49.354;6.804;2023-03-01T15:47:22;10.40;;;9.40;;
8478;SDS011;4276;49.354;6.804;2023-03-01T15:49:51;11.20;;;10.10;;
8478;SDS011;4276;49.354;6.804;2023-03-01T15:52:28;17.95;;;9.57;;
8478;SDS011;4276;49.354;6.804;2023-03-01T15:54:58;10.23;;;9.32;;
8478;SDS011;4276;49.354;6.804;2023-03-01T15:57:26;10.77;;;9.77;;
8478;SDS011;4276;49.354;6.804;2023-03-01T15:59:53;11.25;;;10.20;;
8478;SDS011;4276;49.354;6.804;2023-03-01T16:02:20;10.70;;;9.68;;
8478;SDS011;4276;49.354;6.804;2023-03-01T16:04:48;10.52;;;9.43;;
8478;SDS011;4276;49.354;6.804;2023-03-01T16:07:15;10.77;;;9.73;;
8478;SDS011;4276;49.354;6.804;2023-03-01T16:09:41;9.40;;;8.50;;
8478;SDS011;4276;49.354;6.804;2023-03-01T16:12:12;10.20;;;9.30;;
8478;SDS011;4276;49.354;6.804;2023-03-01T16:14:40;11.35;;;10.15;;
8478;SDS011;4276;49.354;6.804;2023-03-01T16:17:07;12.02;;;10.93;;
8478;SDS011;4276;49.354;6.804;2023-03-01T16:19:36;12.52;;;11.25;;
8478;SDS011;4276;49.354;6.804;2023-03-01T16:22:03;12.57;;;11.27;;
8478;SDS011;4276;49.354;6.804;2023-03-01T16:24:30;12.02;;;10.93;;
8478;SDS011;4276;49.354;6.804;2023-03-01T16:26:57;10.95;;;9.95;;
8478;SDS011;4276;49.354;6.804;2023-03-01T16:29:23;11.18;;;10.07;;
8478;SDS011;4276;49.354;6.804;2023-03-01T16:31:50;10.82;;;9.75;;
8478;SDS011;4276;49.354;6.804;2023-03-01T16:34:17;10.85;;;9.75;;
8478;SDS011;4276;49.354;6.804;2023-03-01T16:36:43;11.80;;;10.60;;
8478;SDS011;4276;49.354;6.804;2023-03-01T16:39:10;12.77;;;11.48;;
8478;SDS011;4276;49.354;6.804;2023-03-01T16:41:36;13.23;;;11.50;;
8478;SDS011;4276;49.354;6.804;2023-03-01T16:44:03;12.15;;;10.95;;
8478;SDS011;4276;49.354;6.804;2023-03-01T16:46:29;11.82;;;10.73;;
8478;SDS011;4276;49.354;6.804;2023-03-01T16:48:56;12.60;;;11.40;;
8478;SDS011;4276;49.354;6.804;2023-03-01T16:51:23;11.68;;;10.48;;
8478;SDS011;4276;49.354;6.804;2023-03-01T16:53:50;10.73;;;9.63;;
8478;SDS011;4276;49.354;6.804;2023-03-01T16:56:17;10.27;;;9.27;;
8478;SDS011;4276;49.354;6.804;2023-03-01T16:58:44;9.55;;;8.75;;
8478;SDS011;4276;49.354;6.804;2023-03-01T17:01:14;10.07;;;9.07;;
8478;SDS011;4276;49.354;6.804;2023-03-01T17:03:43;11.02;;;9.88;;
8478;SDS011;4276;49.354;6.804;2023-03-01T17:06:13;10.38;;;9.38;;
8478;SDS011;4276;49.354;6.804;2023-03-01T17:08:41;9.93;;;8.93;;
8478;SDS011;4276;49.354;6.804;2023-03-01T17:11:15;10.70;;;9.65;;
8478;SDS011;4276;49.354;6.804;2023-03-01T17:13:43;9.73;;;8.73;;
8478;SDS011;4276;49.354;6.804;2023-03-01T17:16:11;10.77;;;9.77;;
8478;SDS011;4276;49.354;6.804;2023-03-01T17:18:40;9.48;;;8.57;;
8478;SDS011;4276;49.354;6.804;2023-03-01T17:21:07;10.88;;;9.77;;
8478;SDS011;4276;49.354;6.804;2023-03-01T17:23:34;10.73;;;9.63;;
8478;SDS011;4276;49.354;6.804;2023-03-01T17:26:01;10.18;;;9.10;;